Snoqualmie River: North Fork station

back to: Snoqualmie river
North Fork station Summary - (NOAA Hydrograph: SNQW1)
Latest reading:
Fri11/16 02:15 pm 3.38 ft 406 cfs (-16/hr)
Past 24hr max:
Fri11/16 02:00 pm 3.39 ft 410 cfs
Forecasted crests: (published Fri 11/16/18 03:04 pm)
Fri11/23 04:00 am 3.66 ft 520 cfs
Sun11/25 10:00 am 4.04 ft 699 cfs

North Fork station Details

Latest Readings

Last 100 Readings:
Fri11/16 02:15 pm 3.38 ft 406 cfs
Fri11/16 02:00 pm 3.39 ft 410 cfs
Fri11/16 01:45 pm 3.38 ft 406 cfs
Fri11/16 01:30 pm 3.38 ft 406 cfs
Fri11/16 01:15 pm 3.38 ft 406 cfs
Fri11/16 01:00 pm 3.37 ft 402 cfs
Fri11/16 12:45 pm 3.38 ft 406 cfs
Fri11/16 12:30 pm 3.37 ft 402 cfs
Fri11/16 12:15 pm 3.36 ft 399 cfs
Fri11/16 12:00 pm 3.36 ft 399 cfs
Fri11/16 11:45 am 3.33 ft 388 cfs
Fri11/16 11:30 am 3.32 ft 384 cfs
Fri11/16 11:15 am 3.3 ft 377 cfs
Fri11/16 11:00 am 3.29 ft 373 cfs
Fri11/16 10:45 am 3.27 ft 366 cfs
Fri11/16 10:30 am 3.25 ft 359 cfs
Fri11/16 10:15 am 3.23 ft 352 cfs
Fri11/16 10:00 am 3.23 ft 352 cfs
Fri11/16 09:45 am 3.21 ft 346 cfs
Fri11/16 09:30 am 3.2 ft 342 cfs
Fri11/16 09:15 am 3.18 ft 335 cfs
Fri11/16 09:00 am 3.16 ft 329 cfs
Fri11/16 08:45 am 3.15 ft 326 cfs
Fri11/16 08:30 am 3.15 ft 326 cfs
Fri11/16 08:15 am 3.13 ft 319 cfs
Fri11/16 08:00 am 3.12 ft 316 cfs
Fri11/16 07:45 am 3.12 ft 316 cfs
Fri11/16 07:30 am 3.11 ft 313 cfs
Fri11/16 07:15 am 3.1 ft 309 cfs
Fri11/16 07:00 am 3.1 ft 309 cfs
Fri11/16 06:45 am 3.09 ft 306 cfs
Fri11/16 06:30 am 3.08 ft 303 cfs
Fri11/16 06:15 am 3.08 ft 303 cfs
Fri11/16 06:00 am 3.07 ft 300 cfs
Fri11/16 05:45 am 3.06 ft 297 cfs
Fri11/16 05:30 am 3.05 ft 294 cfs
Fri11/16 05:15 am 3.05 ft 294 cfs
Fri11/16 05:00 am 3.04 ft 291 cfs
Fri11/16 04:45 am 3.03 ft 288 cfs
Fri11/16 04:30 am 3.03 ft 288 cfs
Fri11/16 04:15 am 3.02 ft 285 cfs
Fri11/16 04:00 am 3.01 ft 282 cfs
Fri11/16 03:45 am 3.0 ft 279 cfs
Fri11/16 03:30 am 2.99 ft 276 cfs
Fri11/16 03:15 am 2.99 ft 276 cfs
Fri11/16 03:00 am 2.98 ft 273 cfs
Fri11/16 02:45 am 2.97 ft 270 cfs
Fri11/16 02:30 am 2.97 ft 270 cfs
Fri11/16 02:15 am 2.96 ft 267 cfs
Fri11/16 02:00 am 2.96 ft 267 cfs
Fri11/16 01:45 am 2.95 ft 264 cfs
Fri11/16 01:30 am 2.95 ft 264 cfs
Fri11/16 01:15 am 2.94 ft 261 cfs
Fri11/16 01:00 am 2.93 ft 258 cfs
Fri11/16 12:45 am 2.94 ft 261 cfs
Fri11/16 12:30 am 2.93 ft 258 cfs
Fri11/16 12:15 am 2.94 ft 261 cfs
Fri11/16 12:00 am 2.93 ft 258 cfs
Thu11/15 11:45 pm 2.92 ft 256 cfs
Thu11/15 11:30 pm 2.92 ft 256 cfs
Thu11/15 11:15 pm 2.92 ft 256 cfs
Thu11/15 11:00 pm 2.92 ft 256 cfs
Thu11/15 10:45 pm 2.92 ft 256 cfs
Thu11/15 10:30 pm 2.92 ft 256 cfs
Thu11/15 10:15 pm 2.92 ft 256 cfs
Thu11/15 10:00 pm 2.92 ft 256 cfs
Thu11/15 09:45 pm 2.92 ft 256 cfs
Thu11/15 09:30 pm 2.92 ft 256 cfs
Thu11/15 09:15 pm 2.93 ft 258 cfs
Thu11/15 09:00 pm 2.92 ft 256 cfs
Thu11/15 08:45 pm 2.92 ft 256 cfs
Thu11/15 08:30 pm 2.92 ft 256 cfs
Thu11/15 08:15 pm 2.92 ft 256 cfs
Thu11/15 08:00 pm 2.93 ft 258 cfs
Thu11/15 07:45 pm 2.93 ft 258 cfs
Thu11/15 07:30 pm 2.93 ft 258 cfs
Thu11/15 07:15 pm 2.93 ft 258 cfs
Thu11/15 07:00 pm 2.94 ft 261 cfs
Thu11/15 06:45 pm 2.93 ft 258 cfs
Thu11/15 06:30 pm 2.94 ft 261 cfs
Thu11/15 06:15 pm 2.94 ft 261 cfs
Thu11/15 06:00 pm 2.95 ft 264 cfs
Thu11/15 05:45 pm 2.94 ft 261 cfs
Thu11/15 05:30 pm 2.94 ft 261 cfs
Thu11/15 05:15 pm 2.95 ft 264 cfs
Thu11/15 05:00 pm 2.94 ft 261 cfs
Thu11/15 04:45 pm 2.95 ft 264 cfs
Thu11/15 04:30 pm 2.95 ft 264 cfs
Thu11/15 04:15 pm 2.95 ft 264 cfs
Thu11/15 04:00 pm 2.96 ft 267 cfs
Thu11/15 03:45 pm 2.95 ft 264 cfs
Thu11/15 03:30 pm 2.96 ft 267 cfs
Thu11/15 03:15 pm 2.96 ft 267 cfs
Thu11/15 03:00 pm 2.96 ft 267 cfs
Thu11/15 02:45 pm 2.97 ft 270 cfs
Thu11/15 02:30 pm 2.96 ft 267 cfs
Thu11/15 02:15 pm 2.97 ft 270 cfs
Thu11/15 02:00 pm 2.97 ft 270 cfs
Thu11/15 01:45 pm 2.97 ft 270 cfs
Thu11/15 01:30 pm 2.97 ft 270 cfs

Latest Forecasts

Currently Forecasted Readings:
Fri11/16 04:00 pm 3.37 ft 401 cfs
Fri11/16 10:00 pm 3.24 ft 356 cfs
Sat11/17 04:00 am 3.15 ft 327 cfs
Sat11/17 10:00 am 3.09 ft 306 cfs
Sat11/17 04:00 pm 3.04 ft 290 cfs
Sat11/17 10:00 pm 2.99 ft 275 cfs
Sun11/18 04:00 am 2.94 ft 261 cfs
Sun11/18 10:00 am 2.89 ft 248 cfs
Sun11/18 04:00 pm 2.85 ft 236 cfs
Sun11/18 10:00 pm 2.82 ft 228 cfs
Mon11/19 04:00 am 2.79 ft 222 cfs
Mon11/19 10:00 am 2.77 ft 216 cfs
Mon11/19 04:00 pm 2.75 ft 210 cfs
Mon11/19 10:00 pm 2.73 ft 205 cfs
Tue11/20 04:00 am 2.71 ft 200 cfs
Tue11/20 10:00 am 2.69 ft 195 cfs
Tue11/20 04:00 pm 2.67 ft 191 cfs
Tue11/20 10:00 pm 2.65 ft 187 cfs
Wed11/21 04:00 am 2.64 ft 183 cfs
Wed11/21 10:00 am 2.66 ft 189 cfs
Wed11/21 04:00 pm 2.72 ft 204 cfs
Wed11/21 10:00 pm 2.79 ft 220 cfs
Thu11/22 04:00 am 2.87 ft 240 cfs
Thu11/22 10:00 am 2.89 ft 247 cfs
Thu11/22 04:00 pm 3.09 ft 305 cfs
Thu11/22 10:00 pm 3.48 ft 446 cfs
Fri11/23 04:00 am 3.66 ft 520 cfs
Fri11/23 10:00 am 3.63 ft 508 cfs
Fri11/23 04:00 pm 3.62 ft 504 cfs
Fri11/23 10:00 pm 3.7 ft 537 cfs
Sat11/24 04:00 am 3.72 ft 546 cfs
Sat11/24 10:00 am 3.79 ft 577 cfs
Sat11/24 04:00 pm 3.9 ft 631 cfs
Sat11/24 10:00 pm 3.93 ft 643 cfs
Sun11/25 04:00 am 4.02 ft 689 cfs
Sun11/25 10:00 am 4.04 ft 699 cfs
Sun11/25 04:00 pm 3.99 ft 677 cfs
Sun11/25 10:00 pm 3.78 ft 574 cfs
Mon11/26 04:00 am 3.7 ft 538 cfs

Snoqualmie River flood gauge data supplied by the
National Weather Service Northwest River Forecast Center.

Sign up for Floodzilla alerts.